createdAt,value
2018-08-11T00:00:21.289Z,16.58
2018-08-11T00:02:50.274Z,16.56
2018-08-11T00:05:19.251Z,16.49
2018-08-11T00:07:48.643Z,16.41
2018-08-11T00:10:18.209Z,16.37
2018-08-11T00:12:47.169Z,16.35
2018-08-11T00:15:17.529Z,16.31
2018-08-11T00:17:46.691Z,16.25
2018-08-11T00:20:18.768Z,16.25
2018-08-11T00:22:47.775Z,16.24
2018-08-11T00:25:17.178Z,16.20
2018-08-11T00:27:46.104Z,16.17
2018-08-11T00:30:16.462Z,16.13
2018-08-11T00:32:45.452Z,15.96
2018-08-11T00:35:15.192Z,15.91
2018-08-11T00:37:44.686Z,15.92
2018-08-11T00:40:15.777Z,15.90
2018-08-11T00:42:45.914Z,15.82
2018-08-11T00:45:15.529Z,15.82
2018-08-11T00:47:44.513Z,15.76
2018-08-11T00:50:33.556Z,15.73
2018-08-11T00:53:02.702Z,15.69
2018-08-11T00:55:31.617Z,15.65
2018-08-11T00:58:00.592Z,15.59
2018-08-11T01:00:29.639Z,15.69
2018-08-11T01:02:58.620Z,15.62
2018-08-11T01:05:27.672Z,15.57
2018-08-11T01:07:56.611Z,15.57
2018-08-11T01:10:25.569Z,15.51
2018-08-11T01:12:54.490Z,15.53
2018-08-11T01:15:23.652Z,15.52
2018-08-11T01:17:53.079Z,15.50
2018-08-11T01:20:22.068Z,15.50
2018-08-11T01:22:51.180Z,15.51
2018-08-11T01:25:20.124Z,15.50
2018-08-11T01:27:49.078Z,15.50
2018-08-11T01:30:21.024Z,15.50
2018-08-11T01:32:49.994Z,15.50
2018-08-11T01:35:18.982Z,15.45
2018-08-11T01:37:47.925Z,15.43
2018-08-11T01:40:17.526Z,15.43
2018-08-11T01:42:47.749Z,15.39
2018-08-11T01:45:17.337Z,15.35
2018-08-11T01:47:46.323Z,15.32
2018-08-11T01:50:15.940Z,15.29
2018-08-11T01:52:46.065Z,15.28
2018-08-11T01:55:16.410Z,15.24
2018-08-11T01:57:47.691Z,15.15
2018-08-11T02:00:17.960Z,15.12
2018-08-11T02:02:47.050Z,15.04
2018-08-11T02:05:15.996Z,14.98
2018-08-11T02:07:45.488Z,15.00
2018-08-11T02:10:20.919Z,14.94
2018-08-11T02:12:49.883Z,14.96
2018-08-11T02:15:18.844Z,14.91
2018-08-11T02:17:47.777Z,14.91
2018-08-11T02:20:19.044Z,14.91
2018-08-11T02:22:48.905Z,14.87
2018-08-11T02:25:17.909Z,14.85
2018-08-11T02:27:46.952Z,14.88
2018-08-11T02:30:17.049Z,14.88
2018-08-11T02:32:46.041Z,14.82
2018-08-11T02:35:15.350Z,14.78
2018-08-11T02:37:44.544Z,14.76
2018-08-11T02:40:14.836Z,14.78
2018-08-11T02:42:43.844Z,14.70
2018-08-11T02:45:14.679Z,14.66
2018-08-11T02:47:43.788Z,14.66
2018-08-11T02:50:13.223Z,14.63
2018-08-11T02:52:42.494Z,14.63
2018-08-11T02:55:11.821Z,14.61
2018-08-11T02:57:40.774Z,14.55
2018-08-11T03:00:11.573Z,14.48
2018-08-11T03:02:43.043Z,14.46
2018-08-11T03:05:12.015Z,14.36
2018-08-11T03:07:41.104Z,14.31
2018-08-11T03:10:11.515Z,14.31
2018-08-11T03:12:41.208Z,14.29
2018-08-11T03:15:11.653Z,14.28
2018-08-11T03:17:41.338Z,14.27
2018-08-11T03:20:13.113Z,14.21
2018-08-11T03:22:42.257Z,14.19
2018-08-11T03:25:11.420Z,14.17
2018-08-11T03:27:40.542Z,14.14
2018-08-11T03:30:09.599Z,14.17
2018-08-11T03:32:38.534Z,14.15
2018-08-11T03:35:07.442Z,14.12
2018-08-11T03:37:36.383Z,14.08
2018-08-11T03:40:07.253Z,14.18
2018-08-11T03:42:36.172Z,14.16
2018-08-11T03:45:05.116Z,14.13
2018-08-11T03:47:34.144Z,14.16
2018-08-11T03:50:03.619Z,14.21
2018-08-11T03:52:32.575Z,14.25
2018-08-11T03:55:01.549Z,14.24
2018-08-11T03:57:30.904Z,14.29
2018-08-11T03:59:59.850Z,14.29
2018-08-11T04:02:28.828Z,14.34
2018-08-11T04:04:58.016Z,14.35
2018-08-11T04:07:27.015Z,14.47
2018-08-11T04:09:55.994Z,14.44
2018-08-11T04:12:24.958Z,14.45
2018-08-11T04:14:53.966Z,14.48
2018-08-11T04:17:29.121Z,14.54
2018-08-11T04:19:58.409Z,14.54
2018-08-11T04:22:27.376Z,14.57
2018-08-11T04:24:56.354Z,14.53
2018-08-11T04:27:25.301Z,14.57
2018-08-11T04:29:54.261Z,14.54
2018-08-11T04:32:23.555Z,14.59
2018-08-11T04:34:52.513Z,14.60
2018-08-11T04:37:21.556Z,14.69
2018-08-11T04:39:50.641Z,14.84
2018-08-11T04:42:19.592Z,14.79
2018-08-11T04:44:48.527Z,14.80
2018-08-11T04:47:17.496Z,14.84
2018-08-11T04:49:46.465Z,14.91
2018-08-11T04:52:15.539Z,15.08
2018-08-11T04:54:44.498Z,15.24
2018-08-11T04:57:13.420Z,15.42
2018-08-11T04:59:42.464Z,15.50
2018-08-11T05:02:11.415Z,15.59
2018-08-11T05:04:40.336Z,15.65
2018-08-11T05:07:09.392Z,15.80
2018-08-11T05:09:38.330Z,15.93
2018-08-11T05:12:07.272Z,16.11
2018-08-11T05:14:36.271Z,16.22
2018-08-11T05:17:05.241Z,16.38
2018-08-11T05:19:34.188Z,16.38
2018-08-11T05:22:03.140Z,16.46
2018-08-11T05:24:32.144Z,16.35
2018-08-11T05:27:01.082Z,16.36
2018-08-11T05:29:30.339Z,16.31
2018-08-11T05:31:59.268Z,16.42
2018-08-11T05:34:28.197Z,16.46
2018-08-11T05:36:57.176Z,16.66
2018-08-11T05:39:26.094Z,16.76
2018-08-11T05:41:55.030Z,16.81
2018-08-11T05:44:23.989Z,16.80
2018-08-11T05:46:53.017Z,16.82
2018-08-11T05:49:21.946Z,16.88
2018-08-11T05:51:50.921Z,16.87
2018-08-11T05:54:19.894Z,16.88
2018-08-11T05:56:48.870Z,17.01
2018-08-11T05:59:17.870Z,17.00
2018-08-11T06:01:46.929Z,17.04
2018-08-11T06:04:16.028Z,17.07
2018-08-11T06:06:45.162Z,17.09
2018-08-11T06:09:14.155Z,17.14
2018-08-11T06:11:43.132Z,17.30
2018-08-11T06:14:12.148Z,17.62
2018-08-11T06:16:41.109Z,17.81
2018-08-11T06:19:10.126Z,17.88
2018-08-11T06:21:39.323Z,17.90
2018-08-11T06:24:08.535Z,17.98
2018-08-11T06:26:37.854Z,18.29
2018-08-11T06:29:07.345Z,18.50
2018-08-11T06:31:41.485Z,18.75
2018-08-11T06:34:10.679Z,18.85
2018-08-11T06:36:39.737Z,18.65
2018-08-11T06:39:12.550Z,18.55
2018-08-11T06:41:45.337Z,18.47
2018-08-11T06:44:14.400Z,18.46
2018-08-11T06:46:43.465Z,18.47
2018-08-11T06:49:12.347Z,18.62
2018-08-11T06:51:41.324Z,18.74
2018-08-11T06:54:10.438Z,19.57
2018-08-11T06:56:39.440Z,21.27
2018-08-11T06:59:08.420Z,22.53
2018-08-11T07:01:37.572Z,23.93
2018-08-11T07:04:06.788Z,24.90
2018-08-11T07:06:36.815Z,24.51
2018-08-11T07:09:07.790Z,23.84
2018-08-11T07:11:36.805Z,23.35
2018-08-11T07:14:05.815Z,23.34
2018-08-11T07:16:34.840Z,25.08
2018-08-11T07:19:03.781Z,25.77
2018-08-11T07:21:33.756Z,26.65
2018-08-11T07:24:03.343Z,26.94
2018-08-11T07:26:33.420Z,27.33
2018-08-11T07:29:02.473Z,27.99
2018-08-11T07:31:31.404Z,28.78
2018-08-11T07:34:00.350Z,27.12
2018-08-11T07:36:29.455Z,26.43
2018-08-11T07:38:58.498Z,27.08
2018-08-11T07:41:27.990Z,26.73
2018-08-11T07:43:56.946Z,25.81
2018-08-11T07:46:25.960Z,24.97
2018-08-11T07:48:55.159Z,24.33
2018-08-11T07:51:24.186Z,24.48
2018-08-11T07:53:53.190Z,24.13
2018-08-11T07:56:22.156Z,23.59
2018-08-11T07:58:51.111Z,23.59
2018-08-11T08:01:20.220Z,23.82
2018-08-11T08:03:49.108Z,23.98
2018-08-11T08:06:18.105Z,24.01
2018-08-11T08:08:47.039Z,24.26
2018-08-11T08:11:17.117Z,24.54
2018-08-11T08:13:46.215Z,25.77
2018-08-11T08:16:15.173Z,26.81
2018-08-11T08:18:44.113Z,27.88
2018-08-11T08:21:13.435Z,27.87
2018-08-11T08:23:42.392Z,28.63
2018-08-11T08:26:11.421Z,28.07
2018-08-11T08:28:40.366Z,28.24
2018-08-11T08:31:09.702Z,27.01
2018-08-11T08:33:38.664Z,26.59
2018-08-11T08:36:07.635Z,26.22
2018-08-11T08:38:36.645Z,25.76
2018-08-11T08:41:05.603Z,25.47
2018-08-11T08:43:34.561Z,25.36
2018-08-11T08:46:03.607Z,24.99
2018-08-11T08:48:32.562Z,24.65
2018-08-11T08:51:01.521Z,24.62
2018-08-11T08:53:30.512Z,24.59
2018-08-11T08:55:59.539Z,24.46
2018-08-11T08:58:28.491Z,24.24
2018-08-11T09:00:57.446Z,24.17
2018-08-11T09:03:26.511Z,24.09
2018-08-11T09:05:55.678Z,24.42
2018-08-11T09:08:24.609Z,24.86
2018-08-11T09:10:54.086Z,25.09
2018-08-11T09:13:23.060Z,25.66
2018-08-11T09:15:52.079Z,26.21
2018-08-11T09:18:21.053Z,26.66
2018-08-11T09:20:55.577Z,26.40
2018-08-11T09:23:24.644Z,26.08
2018-08-11T09:25:53.573Z,25.86
2018-08-11T09:28:22.551Z,26.34
2018-08-11T09:30:51.620Z,27.03
2018-08-11T09:33:20.886Z,28.17
2018-08-11T09:35:49.842Z,28.08
2018-08-11T09:38:18.971Z,28.70
2018-08-11T09:40:47.903Z,28.36
2018-08-11T09:43:16.875Z,27.90
2018-08-11T09:45:45.975Z,27.72
2018-08-11T09:48:14.852Z,27.15
2018-08-11T09:50:43.808Z,27.28
2018-08-11T09:53:12.863Z,28.16
2018-08-11T09:55:41.849Z,28.34
2018-08-11T09:58:10.915Z,28.12
2018-08-11T10:00:47.706Z,27.36
2018-08-11T10:03:16.732Z,27.34
2018-08-11T10:05:45.678Z,27.91
2018-08-11T10:08:14.628Z,28.62
2018-08-11T10:10:43.644Z,29.19
2018-08-11T10:13:12.627Z,30.03
2018-08-11T10:15:41.841Z,30.36
2018-08-11T10:18:10.962Z,30.56
2018-08-11T10:20:39.922Z,30.90
2018-08-11T10:23:08.868Z,30.87
2018-08-11T10:25:38.005Z,31.09
2018-08-11T10:28:07.024Z,29.28
2018-08-11T10:30:36.465Z,29.07
2018-08-11T10:33:05.568Z,29.26
2018-08-11T10:35:34.507Z,29.72
2018-08-11T10:38:03.551Z,28.78
2018-08-11T10:40:32.552Z,29.26
2018-08-11T10:43:01.515Z,29.98
2018-08-11T10:45:30.523Z,29.89
2018-08-11T10:47:59.569Z,30.01
2018-08-11T10:50:28.519Z,30.94
2018-08-11T10:52:58.082Z,30.52
2018-08-11T10:55:27.191Z,30.50
2018-08-11T10:57:56.179Z,30.32
2018-08-11T11:00:25.167Z,29.05
2018-08-11T11:02:54.332Z,29.11
2018-08-11T11:05:23.247Z,29.31
2018-08-11T11:07:52.218Z,28.97
2018-08-11T11:10:21.256Z,29.68
2018-08-11T11:12:50.161Z,31.27
2018-08-11T11:15:19.119Z,30.66
2018-08-11T11:17:48.107Z,29.43
2018-08-11T11:20:17.151Z,29.34
2018-08-11T11:22:46.144Z,28.36
2018-08-11T11:25:15.157Z,27.71
2018-08-11T11:27:44.482Z,28.02
2018-08-11T11:30:13.502Z,27.98
2018-08-11T11:32:42.489Z,28.70
2018-08-11T11:35:11.556Z,28.13
2018-08-11T11:37:40.537Z,28.17
2018-08-11T11:40:09.760Z,28.44
2018-08-11T11:42:38.724Z,29.57
2018-08-11T11:45:07.897Z,29.80
2018-08-11T11:47:37.669Z,29.77
2018-08-11T11:50:06.923Z,30.63
2018-08-11T11:52:35.840Z,29.62
2018-08-11T11:55:04.821Z,28.40
2018-08-11T11:57:33.844Z,27.23
2018-08-11T12:00:02.893Z,26.86
2018-08-11T12:02:31.776Z,27.24
2018-08-11T12:05:00.743Z,28.68
2018-08-11T12:07:29.688Z,29.08
2018-08-11T12:09:58.626Z,28.50
2018-08-11T12:12:27.622Z,28.61
2018-08-11T12:14:56.605Z,28.58
2018-08-11T12:17:25.536Z,29.30
2018-08-11T12:19:54.492Z,30.01
2018-08-11T12:22:23.448Z,31.53
2018-08-11T12:24:52.418Z,31.25
2018-08-11T12:27:21.422Z,31.15
2018-08-11T12:29:50.428Z,31.23
2018-08-11T12:32:19.427Z,31.55
2018-08-11T12:34:48.369Z,32.32
2018-08-11T12:37:17.307Z,32.11
2018-08-11T12:39:46.274Z,31.92
2018-08-11T12:42:17.027Z,31.76
2018-08-11T12:44:46.014Z,30.83
2018-08-11T12:47:14.947Z,29.24
2018-08-11T12:49:43.879Z,28.85
2018-08-11T12:52:12.843Z,27.79
2018-08-11T12:54:41.792Z,28.33
2018-08-11T12:57:10.803Z,28.86
2018-08-11T12:59:39.829Z,29.82
2018-08-11T13:02:08.874Z,30.49
2018-08-11T13:04:37.819Z,29.81
2018-08-11T13:07:06.780Z,28.93
2018-08-11T13:09:35.856Z,29.73
2018-08-11T13:12:04.819Z,29.77
2018-08-11T13:14:33.888Z,29.24
2018-08-11T13:17:02.965Z,29.48
2018-08-11T13:19:32.003Z,30.13
2018-08-11T13:22:00.932Z,30.13
2018-08-11T13:24:29.915Z,29.48
2018-08-11T13:26:58.889Z,28.99
2018-08-11T13:29:28.115Z,28.29
2018-08-11T13:31:57.010Z,29.00
2018-08-11T13:34:26.000Z,28.51
2018-08-11T13:36:54.925Z,27.90
2018-08-11T13:39:23.862Z,27.73
2018-08-11T13:41:52.817Z,28.04
2018-08-11T13:44:21.869Z,28.76
2018-08-11T13:46:50.778Z,28.12
2018-08-11T13:49:19.826Z,27.59
2018-08-11T13:51:49.864Z,27.11
2018-08-11T13:54:18.855Z,26.57
2018-08-11T13:56:47.821Z,26.54
2018-08-11T13:59:16.882Z,27.52
2018-08-11T14:01:45.934Z,28.33
2018-08-11T14:04:14.899Z,29.26
2018-08-11T14:06:43.772Z,30.18
2018-08-11T14:09:12.810Z,30.10
2018-08-11T14:11:42.245Z,29.43
2018-08-11T14:14:11.240Z,29.48
2018-08-11T14:16:40.200Z,29.42
2018-08-11T14:19:09.179Z,29.68
2018-08-11T14:21:38.322Z,29.67
2018-08-11T14:24:07.244Z,30.12
2018-08-11T14:26:36.204Z,29.85
2018-08-11T14:29:05.144Z,29.68
2018-08-11T14:31:34.104Z,29.69
2018-08-11T14:34:05.501Z,29.46
2018-08-11T14:36:34.444Z,29.14
2018-08-11T14:39:03.456Z,29.18
2018-08-11T14:41:32.475Z,28.93
2018-08-11T14:44:01.573Z,29.22
2018-08-11T14:46:30.521Z,29.20
2018-08-11T14:48:59.478Z,30.33
2018-08-11T14:51:30.018Z,29.82
2018-08-11T14:53:59.936Z,29.10
2018-08-11T14:56:28.979Z,28.62
2018-08-11T14:58:57.969Z,27.72
2018-08-11T15:01:27.042Z,27.39
2018-08-11T15:03:55.995Z,27.63
2018-08-11T15:06:25.053Z,27.70
2018-08-11T15:08:54.226Z,28.08
2018-08-11T15:11:23.243Z,28.61
2018-08-11T15:13:52.316Z,27.92
2018-08-11T15:16:21.350Z,28.30
2018-08-11T15:18:52.213Z,28.05
2018-08-11T15:21:22.647Z,27.49
2018-08-11T15:23:51.591Z,27.23
2018-08-11T15:26:20.555Z,27.33
2018-08-11T15:28:49.549Z,27.76
2018-08-11T15:31:21.600Z,28.03
2018-08-11T15:33:50.618Z,28.14
2018-08-11T15:36:19.567Z,28.10
2018-08-11T15:38:48.594Z,27.90
2018-08-11T15:41:17.512Z,28.08
2018-08-11T15:43:46.439Z,28.10
2018-08-11T15:46:15.402Z,28.14
2018-08-11T15:48:44.433Z,27.99
2018-08-11T15:51:16.067Z,27.16
2018-08-11T15:53:45.117Z,27.04
2018-08-11T15:56:14.770Z,26.54
2018-08-11T15:58:44.173Z,26.44
2018-08-11T16:01:13.145Z,26.82
2018-08-11T16:03:42.173Z,26.98
2018-08-11T16:06:11.159Z,27.02
2018-08-11T16:08:40.114Z,27.32
2018-08-11T16:11:09.057Z,27.31
2018-08-11T16:13:38.029Z,27.21
2018-08-11T16:16:07.043Z,27.04
2018-08-11T16:18:36.277Z,27.11
2018-08-11T16:21:05.287Z,27.24
2018-08-11T16:23:34.399Z,27.16
2018-08-11T16:26:03.424Z,26.89
2018-08-11T16:28:32.982Z,26.42
2018-08-11T16:31:01.975Z,26.37
2018-08-11T16:33:30.985Z,26.57
2018-08-11T16:35:59.964Z,26.43
2018-08-11T16:38:28.934Z,26.35
2018-08-11T16:40:58.019Z,26.03
2018-08-11T16:43:26.995Z,25.88
2018-08-11T16:45:55.955Z,25.72
2018-08-11T16:48:25.009Z,25.66
2018-08-11T16:50:53.963Z,25.62
2018-08-11T16:53:22.907Z,25.75
2018-08-11T16:55:51.860Z,25.54
2018-08-11T16:58:20.777Z,25.58
2018-08-11T17:00:50.156Z,25.55
2018-08-11T17:03:19.077Z,25.39
2018-08-11T17:05:48.061Z,25.35
2018-08-11T17:08:16.985Z,25.35
2018-08-11T17:10:45.915Z,25.18
2018-08-11T17:13:14.875Z,25.28
2018-08-11T17:15:43.875Z,24.98
2018-08-11T17:18:12.889Z,24.83
2018-08-11T17:20:42.167Z,24.61
2018-08-11T17:23:11.049Z,24.48
2018-08-11T17:25:40.254Z,24.38
2018-08-11T17:28:09.652Z,24.07
2018-08-11T17:30:38.697Z,23.96
2018-08-11T17:33:07.731Z,23.80
2018-08-11T17:35:36.740Z,23.62
2018-08-11T17:38:06.011Z,23.61
2018-08-11T17:40:34.960Z,23.46
2018-08-11T17:43:03.924Z,23.32
2018-08-11T17:45:32.946Z,23.23
2018-08-11T17:48:02.115Z,23.11
2018-08-11T17:50:31.648Z,23.16
2018-08-11T17:53:02.259Z,23.05
2018-08-11T17:55:31.401Z,22.99
2018-08-11T17:58:00.300Z,22.92
2018-08-11T18:00:29.404Z,22.87
2018-08-11T18:02:58.458Z,22.77
2018-08-11T18:05:27.444Z,22.64
2018-08-11T18:07:56.448Z,22.55
2018-08-11T18:10:25.396Z,22.50
2018-08-11T18:12:54.478Z,22.41
2018-08-11T18:15:23.404Z,22.34
2018-08-11T18:17:52.433Z,22.21
2018-08-11T18:20:21.457Z,22.14
2018-08-11T18:22:50.539Z,22.08
2018-08-11T18:25:19.596Z,22.03
2018-08-11T18:27:48.628Z,21.95
2018-08-11T18:30:19.251Z,21.88
2018-08-11T18:32:48.261Z,21.78
2018-08-11T18:35:17.250Z,21.68
2018-08-11T18:37:46.253Z,21.61
2018-08-11T18:40:15.219Z,21.48
2018-08-11T18:42:44.272Z,21.44
2018-08-11T18:45:13.286Z,21.29
2018-08-11T18:47:42.206Z,21.15
2018-08-11T18:50:11.476Z,21.03
2018-08-11T18:52:40.595Z,20.91
2018-08-11T18:55:10.508Z,20.86
2018-08-11T18:57:39.489Z,20.82
2018-08-11T19:00:15.234Z,20.72
2018-08-11T19:02:44.831Z,20.62
2018-08-11T19:05:13.903Z,20.54
2018-08-11T19:07:43.028Z,20.60
2018-08-11T19:10:12.175Z,20.55
2018-08-11T19:12:41.286Z,20.54
2018-08-11T19:15:13.097Z,20.48
2018-08-11T19:17:42.065Z,20.38
2018-08-11T19:20:12.289Z,20.36
2018-08-11T19:22:41.292Z,20.29
2018-08-11T19:25:11.293Z,20.12
2018-08-11T19:27:40.495Z,19.99
2018-08-11T19:30:10.388Z,19.88
2018-08-11T19:32:39.862Z,19.79
2018-08-11T19:35:09.015Z,19.74
2018-08-11T19:37:38.354Z,19.66
2018-08-11T19:40:08.457Z,19.60
2018-08-11T19:42:37.591Z,19.49
2018-08-11T19:45:08.549Z,19.39
2018-08-11T19:47:53.924Z,19.31
2018-08-11T19:50:23.018Z,19.16
2018-08-11T19:52:52.133Z,19.08
2018-08-11T19:55:21.488Z,18.98
2018-08-11T19:57:51.123Z,18.92
2018-08-11T20:00:20.913Z,18.83
2018-08-11T20:02:49.862Z,18.78
2018-08-11T20:05:19.463Z,18.71
2018-08-11T20:07:48.696Z,18.68
2018-08-11T20:10:17.658Z,18.59
2018-08-11T20:12:46.784Z,18.53
2018-08-11T20:15:15.772Z,18.44
2018-08-11T20:17:44.704Z,18.39
2018-08-11T20:20:13.735Z,18.31
2018-08-11T20:22:42.995Z,18.26
2018-08-11T20:25:12.134Z,18.14
2018-08-11T20:27:41.168Z,18.12
2018-08-11T20:30:11.125Z,18.07
2018-08-11T20:32:40.049Z,17.89
2018-08-11T20:35:09.013Z,17.89
2018-08-11T20:37:38.046Z,17.81
2018-08-11T20:40:06.981Z,17.71
2018-08-11T20:42:36.090Z,17.72
2018-08-11T20:45:05.655Z,17.70
2018-08-11T20:47:34.728Z,17.65
2018-08-11T20:50:04.118Z,17.59
2018-08-11T20:52:33.157Z,17.50
2018-08-11T20:55:02.124Z,17.38
2018-08-11T20:57:31.120Z,17.26
2018-08-11T21:00:00.182Z,17.24
2018-08-11T21:02:29.225Z,17.22
2018-08-11T21:04:58.177Z,17.16
2018-08-11T21:07:27.192Z,17.18
2018-08-11T21:09:56.143Z,17.12
2018-08-11T21:12:25.107Z,17.00
2018-08-11T21:14:54.406Z,16.89
2018-08-11T21:17:23.962Z,16.78
2018-08-11T21:19:52.912Z,16.72
2018-08-11T21:22:22.075Z,16.67
2018-08-11T21:24:50.983Z,16.61
2018-08-11T21:27:19.952Z,16.57
2018-08-11T21:29:48.911Z,16.58
2018-08-11T21:32:17.883Z,16.46
2018-08-11T21:34:48.013Z,16.43
2018-08-11T21:37:17.118Z,16.29
2018-08-11T21:39:46.032Z,16.29
2018-08-11T21:42:15.008Z,16.19
2018-08-11T21:44:43.992Z,16.22
2018-08-11T21:47:12.976Z,16.17
2018-08-11T21:49:41.951Z,16.09
2018-08-11T21:52:10.934Z,16.03
2018-08-11T21:54:39.955Z,16.03
2018-08-11T21:57:10.946Z,15.94
2018-08-11T21:59:40.283Z,15.91
2018-08-11T22:02:09.353Z,15.88
2018-08-11T22:04:38.360Z,15.82
2018-08-11T22:07:08.998Z,15.82
2018-08-11T22:09:39.358Z,15.76
2018-08-11T22:12:08.376Z,15.63
2018-08-11T22:14:37.384Z,15.55
2018-08-11T22:17:06.468Z,15.53
2018-08-11T22:19:35.392Z,15.48
2018-08-11T22:22:04.337Z,15.32
2018-08-11T22:24:33.333Z,15.32
2018-08-11T22:27:02.320Z,15.27
2018-08-11T22:29:31.279Z,15.24
2018-08-11T22:32:00.280Z,15.17
2018-08-11T22:34:29.303Z,15.13
2018-08-11T22:36:58.293Z,15.07
2018-08-11T22:39:27.248Z,15.10
2018-08-11T22:41:56.263Z,15.07
2018-08-11T22:44:25.300Z,14.93
2018-08-11T22:46:54.425Z,14.94
2018-08-11T22:49:23.360Z,14.86
2018-08-11T22:51:52.418Z,14.86
2018-08-11T22:54:21.372Z,14.85
2018-08-11T22:56:50.347Z,14.73
2018-08-11T22:59:19.345Z,14.71
2018-08-11T23:01:48.312Z,14.68
2018-08-11T23:04:17.269Z,14.66
2018-08-11T23:06:46.237Z,14.65
2018-08-11T23:09:15.392Z,14.60
2018-08-11T23:11:44.413Z,14.54
2018-08-11T23:14:13.412Z,14.52
2018-08-11T23:16:42.358Z,14.53
2018-08-11T23:19:11.513Z,14.52
2018-08-11T23:21:40.462Z,14.47
2018-08-11T23:24:09.927Z,14.37
2018-08-11T23:26:38.964Z,14.31
2018-08-11T23:29:07.948Z,14.27
2018-08-11T23:31:36.912Z,14.27
2018-08-11T23:34:05.903Z,14.26
2018-08-11T23:36:34.872Z,14.21
2018-08-11T23:39:05.868Z,14.22
2018-08-11T23:41:34.884Z,14.16
2018-08-11T23:44:03.887Z,14.14
2018-08-11T23:46:32.799Z,14.07
2018-08-11T23:49:01.865Z,14.08
2018-08-11T23:51:30.810Z,14.01
2018-08-11T23:53:59.784Z,13.88
2018-08-11T23:56:28.960Z,13.85
2018-08-11T23:58:57.938Z,13.79
